sensor_id;sensor_type;location;lat;lon;timestamp;pressure;altitude;pressure_sealevel;temperature;humidity
70254;BME280;57649;42.968;1.608;2023-03-26T00:01:51;96969.97;;;9.04;77.83
70254;BME280;57649;42.968;1.608;2023-03-26T00:04:17;96968.28;;;9.12;77.09
70254;BME280;57649;42.968;1.608;2023-03-26T00:06:44;96984.66;;;8.84;77.89
70254;BME280;57649;42.968;1.608;2023-03-26T00:09:13;96982.16;;;8.82;78.20
70254;BME280;57649;42.968;1.608;2023-03-26T00:11:40;96977.31;;;8.86;78.06
70254;BME280;57649;42.968;1.608;2023-03-26T00:14:05;96970.81;;;8.80;78.44
70254;BME280;57649;42.968;1.608;2023-03-26T00:16:31;96986.34;;;8.52;79.33
70254;BME280;57649;42.968;1.608;2023-03-26T00:18:57;96982.66;;;8.70;78.65
70254;BME280;57649;42.968;1.608;2023-03-26T00:21:25;96982.31;;;8.81;78.54
70254;BME280;57649;42.968;1.608;2023-03-26T00:23:55;96989.53;;;8.89;77.94
70254;BME280;57649;42.968;1.608;2023-03-26T00:26:22;96994.00;;;8.88;78.05
70254;BME280;57649;42.968;1.608;2023-03-26T00:28:48;96994.34;;;9.01;77.58
70254;BME280;57649;42.968;1.608;2023-03-26T00:31:15;96979.31;;;9.00;77.37
70254;BME280;57649;42.968;1.608;2023-03-26T00:33:42;96989.50;;;8.97;77.14
70254;BME280;57649;42.968;1.608;2023-03-26T00:36:11;96993.19;;;8.96;77.48
70254;BME280;57649;42.968;1.608;2023-03-26T00:38:39;96988.00;;;8.86;77.81
70254;BME280;57649;42.968;1.608;2023-03-26T00:41:09;96977.31;;;8.86;77.56
70254;BME280;57649;42.968;1.608;2023-03-26T00:43:43;97002.69;;;8.98;77.64
70254;BME280;57649;42.968;1.608;2023-03-26T00:46:09;96998.00;;;9.00;77.18
70254;BME280;57649;42.968;1.608;2023-03-26T00:48:34;96987.34;;;8.67;77.59
70254;BME280;57649;42.968;1.608;2023-03-26T00:51:03;96991.00;;;8.58;78.99
70254;BME280;57649;42.968;1.608;2023-03-26T00:53:29;96995.19;;;8.61;79.04
70254;BME280;57649;42.968;1.608;2023-03-26T00:55:56;96991.84;;;8.59;78.70
70254;BME280;57649;42.968;1.608;2023-03-26T00:58:25;96995.00;;;8.62;78.98
70254;BME280;57649;42.968;1.608;2023-03-26T01:00:58;96999.34;;;8.47;78.99
70254;BME280;57649;42.968;1.608;2023-03-26T01:03:26;96988.66;;;8.47;79.33
70254;BME280;57649;42.968;1.608;2023-03-26T01:05:57;96996.38;;;8.66;78.97
70254;BME280;57649;42.968;1.608;2023-03-26T01:08:53;96992.34;;;8.95;77.39
70254;BME280;57649;42.968;1.608;2023-03-26T01:11:27;96997.19;;;8.92;77.47
70254;BME280;57649;42.968;1.608;2023-03-26T01:19:27;97011.88;;;8.71;78.14
70254;BME280;57649;42.968;1.608;2023-03-26T01:21:56;97008.03;;;8.82;78.61
70254;BME280;57649;42.968;1.608;2023-03-26T01:24:21;96998.03;;;8.76;78.11
70254;BME280;57649;42.968;1.608;2023-03-26T01:40:23;97003.38;;;8.92;77.99
70254;BME280;57649;42.968;1.608;2023-03-26T01:43:08;96997.34;;;8.98;77.16
70254;BME280;57649;42.968;1.608;2023-03-26T01:45:37;96987.16;;;9.18;76.43
70254;BME280;57649;42.968;1.608;2023-03-26T01:48:05;96983.66;;;9.18;76.44
70254;BME280;57649;42.968;1.608;2023-03-26T01:50:31;96988.47;;;9.22;76.05
70254;BME280;57649;42.968;1.608;2023-03-26T01:52:56;96986.13;;;9.19;76.33
70254;BME280;57649;42.968;1.608;2023-03-26T01:55:27;96992.47;;;9.27;75.95
70254;BME280;57649;42.968;1.608;2023-03-26T01:58:07;97002.66;;;9.23;75.94
70254;BME280;57649;42.968;1.608;2023-03-26T02:03:30;96985.47;;;9.17;76.72
70254;BME280;57649;42.968;1.608;2023-03-26T02:08:44;96985.13;;;9.20;76.72
70254;BME280;57649;42.968;1.608;2023-03-26T02:11:12;96981.13;;;9.24;76.76
70254;BME280;57649;42.968;1.608;2023-03-26T02:13:40;96986.63;;;9.31;76.83
70254;BME280;57649;42.968;1.608;2023-03-26T02:16:09;96975.94;;;9.31;76.49
70254;BME280;57649;42.968;1.608;2023-03-26T02:18:38;96966.44;;;9.29;75.62
70254;BME280;57649;42.968;1.608;2023-03-26T02:21:18;96974.94;;;9.24;76.46
70254;BME280;57649;42.968;1.608;2023-03-26T02:23:45;96979.78;;;9.29;76.55
70254;BME280;57649;42.968;1.608;2023-03-26T02:26:17;96984.63;;;9.33;75.92
70254;BME280;57649;42.968;1.608;2023-03-26T02:28:44;96983.94;;;9.31;75.75
70254;BME280;57649;42.968;1.608;2023-03-26T02:31:09;96999.31;;;9.21;76.24
70254;BME280;57649;42.968;1.608;2023-03-26T02:33:38;96998.31;;;9.22;75.96
70254;BME280;57649;42.968;1.608;2023-03-26T02:36:04;96996.50;;;9.14;76.34
70254;BME280;57649;42.968;1.608;2023-03-26T02:38:31;97004.38;;;8.99;77.29
70254;BME280;57649;42.968;1.608;2023-03-26T02:41:01;97008.03;;;9.15;77.24
70254;BME280;57649;42.968;1.608;2023-03-26T02:43:27;97019.38;;;9.25;77.11
70254;BME280;57649;42.968;1.608;2023-03-26T02:45:52;97009.34;;;9.27;76.21
70254;BME280;57649;42.968;1.608;2023-03-26T02:48:18;97013.34;;;9.23;76.39
70254;BME280;57649;42.968;1.608;2023-03-26T02:50:45;97019.38;;;9.25;75.77
70254;BME280;57649;42.968;1.608;2023-03-26T02:53:11;97030.88;;;9.25;75.67
70254;BME280;57649;42.968;1.608;2023-03-26T02:55:38;97040.53;;;9.43;75.36
70254;BME280;57649;42.968;1.608;2023-03-26T02:58:03;97030.34;;;9.38;75.66
70254;BME280;57649;42.968;1.608;2023-03-26T03:00:29;97030.69;;;9.43;76.10
70254;BME280;57649;42.968;1.608;2023-03-26T03:02:54;97048.72;;;9.41;76.62
70254;BME280;57649;42.968;1.608;2023-03-26T03:05:22;97055.06;;;9.32;77.45
70254;BME280;57649;42.968;1.608;2023-03-26T03:07:51;97060.41;;;9.32;76.14
70254;BME280;57649;42.968;1.608;2023-03-26T03:10:16;97052.38;;;9.32;77.08
70254;BME280;57649;42.968;1.608;2023-03-26T03:12:46;97070.44;;;9.38;76.70
70254;BME280;57649;42.968;1.608;2023-03-26T03:15:12;97085.13;;;9.42;77.29
70254;BME280;57649;42.968;1.608;2023-03-26T03:17:38;97084.44;;;9.32;77.56
70254;BME280;57649;42.968;1.608;2023-03-26T03:20:05;97090.44;;;9.42;76.60
70254;BME280;57649;42.968;1.608;2023-03-26T03:22:34;97097.63;;;9.50;76.67
70254;BME280;57649;42.968;1.608;2023-03-26T03:24:59;97090.75;;;9.56;76.56
70254;BME280;57649;42.968;1.608;2023-03-26T03:27:25;97110.81;;;9.52;78.25
70254;BME280;57649;42.968;1.608;2023-03-26T03:29:51;97107.50;;;9.33;79.21
70254;BME280;57649;42.968;1.608;2023-03-26T03:32:21;97127.34;;;9.22;80.77
70254;BME280;57649;42.968;1.608;2023-03-26T03:34:48;97115.16;;;8.95;81.14
70254;BME280;57649;42.968;1.608;2023-03-26T03:37:17;97131.69;;;9.15;80.90
70254;BME280;57649;42.968;1.608;2023-03-26T03:39:43;97141.03;;;9.11;80.59
70254;BME280;57649;42.968;1.608;2023-03-26T03:42:09;97163.91;;;9.47;79.22
70254;BME280;57649;42.968;1.608;2023-03-26T03:44:34;97155.91;;;9.55;77.80
70254;BME280;57649;42.968;1.608;2023-03-26T03:46:59;97148.72;;;9.72;77.97
70254;BME280;57649;42.968;1.608;2023-03-26T03:49:25;97149.72;;;9.79;77.51
70254;BME280;57649;42.968;1.608;2023-03-26T03:51:50;97157.22;;;9.92;78.06
70254;BME280;57649;42.968;1.608;2023-03-26T03:54:16;97155.38;;;9.92;78.37
70254;BME280;57649;42.968;1.608;2023-03-26T03:56:41;97149.41;;;10.38;78.62
70254;BME280;57649;42.968;1.608;2023-03-26T03:59:10;97140.81;;;10.90;77.02
70254;BME280;57649;42.968;1.608;2023-03-26T04:01:36;97145.00;;;11.16;74.55
70254;BME280;57649;42.968;1.608;2023-03-26T04:04:01;97156.72;;;11.15;74.61
70254;BME280;57649;42.968;1.608;2023-03-26T04:06:26;97142.31;;;11.16;74.40
70254;BME280;57649;42.968;1.608;2023-03-26T04:08:54;97161.31;;;11.29;73.80
70254;BME280;57649;42.968;1.608;2023-03-26T04:11:21;97160.41;;;11.37;73.79
70254;BME280;57649;42.968;1.608;2023-03-26T04:13:47;97146.34;;;11.35;74.06
70254;BME280;57649;42.968;1.608;2023-03-26T04:16:12;97146.69;;;11.55;73.85
70254;BME280;57649;42.968;1.608;2023-03-26T04:18:38;97151.13;;;11.48;74.58
70254;BME280;57649;42.968;1.608;2023-03-26T04:21:05;97144.38;;;11.52;75.57
70254;BME280;57649;42.968;1.608;2023-03-26T04:23:32;97145.06;;;11.54;77.13
70254;BME280;57649;42.968;1.608;2023-03-26T04:26:00;97157.16;;;11.65;77.43
70254;BME280;57649;42.968;1.608;2023-03-26T04:28:41;97155.53;;;11.64;78.66
70254;BME280;57649;42.968;1.608;2023-03-26T04:31:13;97163.09;;;11.60;79.24
70254;BME280;57649;42.968;1.608;2023-03-26T04:33:43;97164.56;;;11.63;79.80
70254;BME280;57649;42.968;1.608;2023-03-26T04:36:11;97151.88;;;11.56;81.27
70254;BME280;57649;42.968;1.608;2023-03-26T04:38:41;97163.25;;;11.59;82.02
70254;BME280;57649;42.968;1.608;2023-03-26T04:41:11;97161.50;;;11.51;82.86
70254;BME280;57649;42.968;1.608;2023-03-26T04:43:37;97164.00;;;11.52;83.03
70254;BME280;57649;42.968;1.608;2023-03-26T04:46:07;97173.22;;;11.50;82.63
70254;BME280;57649;42.968;1.608;2023-03-26T04:48:35;97164.59;;;11.40;83.44
70254;BME280;57649;42.968;1.608;2023-03-26T04:51:00;97164.41;;;11.41;83.54
70254;BME280;57649;42.968;1.608;2023-03-26T04:53:26;97171.78;;;11.39;83.91
70254;BME280;57649;42.968;1.608;2023-03-26T04:55:58;97162.69;;;11.25;85.35
70254;BME280;57649;42.968;1.608;2023-03-26T04:58:25;97174.94;;;11.20;86.64
70254;BME280;57649;42.968;1.608;2023-03-26T05:00:59;97172.78;;;11.15;87.30
70254;BME280;57649;42.968;1.608;2023-03-26T05:03:28;97176.84;;;11.11;87.64
70254;BME280;57649;42.968;1.608;2023-03-26T05:06:00;97183.25;;;11.02;89.34
70254;BME280;57649;42.968;1.608;2023-03-26T05:08:26;97185.94;;;11.02;90.47
70254;BME280;57649;42.968;1.608;2023-03-26T05:10:54;97179.97;;;10.91;92.69
70254;BME280;57649;42.968;1.608;2023-03-26T05:13:20;97185.03;;;10.86;93.85
70254;BME280;57649;42.968;1.608;2023-03-26T05:15:46;97192.78;;;10.73;95.21
70254;BME280;57649;42.968;1.608;2023-03-26T05:18:11;97179.59;;;10.63;97.03
70254;BME280;57649;42.968;1.608;2023-03-26T05:20:36;97174.09;;;10.56;98.08
70254;BME280;57649;42.968;1.608;2023-03-26T05:23:02;97167.09;;;10.55;99.40
70254;BME280;57649;42.968;1.608;2023-03-26T05:25:28;97164.59;;;10.54;99.69
70254;BME280;57649;42.968;1.608;2023-03-26T05:27:53;97166.13;;;10.48;100.00
70254;BME280;57649;42.968;1.608;2023-03-26T05:30:20;97173.28;;;10.56;98.59
70254;BME280;57649;42.968;1.608;2023-03-26T05:32:47;97169.59;;;10.57;96.78
70254;BME280;57649;42.968;1.608;2023-03-26T05:35:13;97162.41;;;10.49;97.07
70254;BME280;57649;42.968;1.608;2023-03-26T05:37:41;97167.09;;;10.55;96.51
70254;BME280;57649;42.968;1.608;2023-03-26T05:40:10;97168.78;;;10.48;95.86
70254;BME280;57649;42.968;1.608;2023-03-26T05:42:38;97166.44;;;10.45;95.04
70254;BME280;57649;42.968;1.608;2023-03-26T05:45:06;97170.81;;;10.38;94.51
70254;BME280;57649;42.968;1.608;2023-03-26T05:47:31;97167.97;;;10.39;94.53
70254;BME280;57649;42.968;1.608;2023-03-26T05:49:57;97170.34;;;10.34;95.06
70254;BME280;57649;42.968;1.608;2023-03-26T05:52:23;97162.66;;;10.23;95.01
70254;BME280;57649;42.968;1.608;2023-03-26T05:54:48;97172.84;;;10.28;95.63
70254;BME280;57649;42.968;1.608;2023-03-26T05:57:14;97175.53;;;10.28;95.13
70254;BME280;57649;42.968;1.608;2023-03-26T05:59:39;97173.69;;;10.28;95.86
70254;BME280;57649;42.968;1.608;2023-03-26T06:02:06;97186.75;;;10.31;96.15
70254;BME280;57649;42.968;1.608;2023-03-26T06:04:31;97185.22;;;10.37;96.26
70254;BME280;57649;42.968;1.608;2023-03-26T06:06:57;97197.75;;;10.45;96.69
70254;BME280;57649;42.968;1.608;2023-03-26T06:09:22;97194.91;;;10.46;99.13
70254;BME280;57649;42.968;1.608;2023-03-26T06:11:48;97189.88;;;10.43;100.00
70254;BME280;57649;42.968;1.608;2023-03-26T06:14:13;97195.41;;;10.42;100.00
70254;BME280;57649;42.968;1.608;2023-03-26T06:16:39;97196.94;;;10.36;99.49
70254;BME280;57649;42.968;1.608;2023-03-26T06:19:04;97194.91;;;10.38;100.00
70254;BME280;57649;42.968;1.608;2023-03-26T06:21:30;97202.75;;;10.48;99.69
70254;BME280;57649;42.968;1.608;2023-03-26T06:23:55;97201.28;;;10.37;100.00
70254;BME280;57649;42.968;1.608;2023-03-26T06:26:21;97194.59;;;10.33;100.00
70254;BME280;57649;42.968;1.608;2023-03-26T06:28:46;97199.94;;;10.41;100.00
70254;BME280;57649;42.968;1.608;2023-03-26T06:31:12;97204.56;;;10.47;100.00
70254;BME280;57649;42.968;1.608;2023-03-26T06:33:37;97198.88;;;10.50;100.00
70254;BME280;57649;42.968;1.608;2023-03-26T06:36:03;97193.38;;;10.44;100.00
70254;BME280;57649;42.968;1.608;2023-03-26T06:38:29;97198.41;;;10.47;100.00
70254;BME280;57649;42.968;1.608;2023-03-26T06:41:01;97209.75;;;10.49;100.00
70254;BME280;57649;42.968;1.608;2023-03-26T06:43:27;97195.03;;;10.53;100.00
70254;BME280;57649;42.968;1.608;2023-03-26T06:45:53;97191.38;;;10.46;100.00
70254;BME280;57649;42.968;1.608;2023-03-26T06:48:18;97184.19;;;10.46;100.00
70254;BME280;57649;42.968;1.608;2023-03-26T06:50:43;97197.19;;;10.57;98.67
70254;BME280;57649;42.968;1.608;2023-03-26T06:53:09;97197.03;;;10.51;99.73
70254;BME280;57649;42.968;1.608;2023-03-26T06:55:35;97204.91;;;10.52;99.16
70254;BME280;57649;42.968;1.608;2023-03-26T06:58:00;97203.88;;;10.62;98.13
70254;BME280;57649;42.968;1.608;2023-03-26T07:00:26;97196.22;;;10.50;98.56
70254;BME280;57649;42.968;1.608;2023-03-26T07:02:51;97203.22;;;10.59;99.29
70254;BME280;57649;42.968;1.608;2023-03-26T07:05:17;97201.34;;;10.60;100.00
70254;BME280;57649;42.968;1.608;2023-03-26T07:07:42;97200.69;;;10.66;100.00
70254;BME280;57649;42.968;1.608;2023-03-26T07:10:08;97206.81;;;10.75;98.95
70254;BME280;57649;42.968;1.608;2023-03-26T07:12:34;97197.53;;;10.54;100.00
70254;BME280;57649;42.968;1.608;2023-03-26T07:15:00;97205.94;;;10.43;100.00
70254;BME280;57649;42.968;1.608;2023-03-26T07:17:27;97205.94;;;10.43;100.00
70254;BME280;57649;42.968;1.608;2023-03-26T07:19:52;97209.81;;;10.40;100.00
70254;BME280;57649;42.968;1.608;2023-03-26T07:22:21;97205.28;;;10.41;100.00
70254;BME280;57649;42.968;1.608;2023-03-26T07:24:47;97198.44;;;10.22;100.00
70254;BME280;57649;42.968;1.608;2023-03-26T07:27:25;97212.28;;;10.26;100.00
70254;BME280;57649;42.968;1.608;2023-03-26T07:30:07;97209.44;;;10.27;100.00
70254;BME280;57649;42.968;1.608;2023-03-26T07:32:55;97207.97;;;10.16;100.00
70254;BME280;57649;42.968;1.608;2023-03-26T07:35:26;97227.38;;;10.10;100.00
70254;BME280;57649;42.968;1.608;2023-03-26T07:41:06;97221.66;;;10.21;99.93
70254;BME280;57649;42.968;1.608;2023-03-26T07:46:28;97236.72;;;10.14;100.00
70254;BME280;57649;42.968;1.608;2023-03-26T07:48:56;97231.41;;;10.06;100.00
70254;BME280;57649;42.968;1.608;2023-03-26T07:51:25;97229.56;;;10.07;100.00
70254;BME280;57649;42.968;1.608;2023-03-26T07:53:51;97234.41;;;10.03;100.00
70254;BME280;57649;42.968;1.608;2023-03-26T07:56:35;97239.25;;;9.99;100.00
70254;BME280;57649;42.968;1.608;2023-03-26T08:05:27;97234.06;;;9.98;100.00
70254;BME280;57649;42.968;1.608;2023-03-26T08:10:42;97233.25;;;10.06;100.00
70254;BME280;57649;42.968;1.608;2023-03-26T08:13:43;97237.09;;;10.03;100.00
70254;BME280;57649;42.968;1.608;2023-03-26T08:16:27;97231.09;;;9.93;100.00
70254;BME280;57649;42.968;1.608;2023-03-26T08:22:03;97237.94;;;9.95;100.00
70254;BME280;57649;42.968;1.608;2023-03-26T08:27:49;97240.09;;;9.92;100.00
70254;BME280;57649;42.968;1.608;2023-03-26T08:30:21;97235.09;;;9.89;100.00
70254;BME280;57649;42.968;1.608;2023-03-26T08:33:10;97240.25;;;9.90;100.00
70254;BME280;57649;42.968;1.608;2023-03-26T08:35:36;97242.44;;;9.95;100.00
70254;BME280;57649;42.968;1.608;2023-03-26T08:38:10;97247.28;;;9.91;100.00
70254;BME280;57649;42.968;1.608;2023-03-26T08:46:11;97260.81;;;9.98;100.00
70254;BME280;57649;42.968;1.608;2023-03-26T08:54:50;97315.19;;;8.89;100.00
70254;BME280;57649;42.968;1.608;2023-03-26T09:00:31;97317.84;;;8.36;100.00
70254;BME280;57649;42.968;1.608;2023-03-26T09:03:19;97310.88;;;8.35;100.00
70254;BME280;57649;42.968;1.608;2023-03-26T09:06:29;97319.81;;;8.08;100.00
70254;BME280;57649;42.968;1.608;2023-03-26T09:17:09;97342.38;;;7.96;100.00
70254;BME280;57649;42.968;1.608;2023-03-26T09:28:03;97380.13;;;8.09;100.00
70254;BME280;57649;42.968;1.608;2023-03-26T09:33:55;97375.72;;;8.36;100.00
70254;BME280;57649;42.968;1.608;2023-03-26T09:41:49;97369.88;;;8.84;100.00
70254;BME280;57649;42.968;1.608;2023-03-26T09:49:43;97372.34;;;9.04;100.00
70254;BME280;57649;42.968;1.608;2023-03-26T09:55:32;97350.09;;;8.95;89.65
70254;BME280;57649;42.968;1.608;2023-03-26T10:00:57;97352.38;;;8.90;87.16
70254;BME280;57649;42.968;1.608;2023-03-26T10:03:35;97353.78;;;8.94;87.06
70254;BME280;57649;42.968;1.608;2023-03-26T10:22:31;97334.66;;;9.15;85.69
70254;BME280;57649;42.968;1.608;2023-03-26T10:25:21;97331.69;;;9.18;85.82
70254;BME280;57649;42.968;1.608;2023-03-26T10:28:11;97325.69;;;9.24;91.05
70254;BME280;57649;42.968;1.608;2023-03-26T10:33:29;97327.56;;;9.40;90.14
70254;BME280;57649;42.968;1.608;2023-03-26T10:52:43;97325.41;;;9.44;94.12
70254;BME280;57649;42.968;1.608;2023-03-26T10:55:24;97322.91;;;9.42;93.69
70254;BME280;57649;42.968;1.608;2023-03-26T10:57:55;97326.25;;;9.44;94.06
70254;BME280;57649;42.968;1.608;2023-03-26T11:00:24;97328.09;;;9.44;93.93
70254;BME280;57649;42.968;1.608;2023-03-26T11:05:39;97329.00;;;9.18;94.85
70254;BME280;57649;42.968;1.608;2023-03-26T11:18:57;97320.31;;;8.74;99.73
70254;BME280;57649;42.968;1.608;2023-03-26T11:21:36;97317.00;;;8.80;100.00
70254;BME280;57649;42.968;1.608;2023-03-26T11:24:39;97316.25;;;9.04;100.00
70254;BME280;57649;42.968;1.608;2023-03-26T11:30:37;97320.03;;;9.36;100.00
70254;BME280;57649;42.968;1.608;2023-03-26T11:33:08;97310.06;;;9.38;100.00
70254;BME280;57649;42.968;1.608;2023-03-26T11:35:45;97307.78;;;9.68;100.00
70254;BME280;57649;42.968;1.608;2023-03-26T11:40:42;97296.56;;;9.64;100.00
70254;BME280;57649;42.968;1.608;2023-03-26T11:43:13;97304.94;;;9.77;100.00
70254;BME280;57649;42.968;1.608;2023-03-26T11:45:44;97310.28;;;9.69;100.00
70254;BME280;57649;42.968;1.608;2023-03-26T11:50:49;97297.72;;;9.61;99.40
70254;BME280;57649;42.968;1.608;2023-03-26T11:53:19;97307.53;;;9.44;100.00
70254;BME280;57649;42.968;1.608;2023-03-26T12:01:17;97295.91;;;10.03;96.65
70254;BME280;57649;42.968;1.608;2023-03-26T12:04:13;97289.88;;;10.42;95.78
70254;BME280;57649;42.968;1.608;2023-03-26T12:09:31;97267.69;;;11.21;91.81
70254;BME280;57649;42.968;1.608;2023-03-26T12:12:02;97251.44;;;11.53;88.02
70254;BME280;57649;42.968;1.608;2023-03-26T12:14:31;97245.97;;;11.93;85.69
70254;BME280;57649;42.968;1.608;2023-03-26T12:17:11;97249.34;;;11.87;83.25
70254;BME280;57649;42.968;1.608;2023-03-26T12:19:44;97219.31;;;11.68;83.99
70254;BME280;57649;42.968;1.608;2023-03-26T12:22:30;97241.91;;;11.51;85.13
70254;BME280;57649;42.968;1.608;2023-03-26T12:25:17;97229.28;;;11.36;83.92
70254;BME280;57649;42.968;1.608;2023-03-26T12:27:47;97229.50;;;11.50;84.82
70254;BME280;57649;42.968;1.608;2023-03-26T12:30:23;97244.16;;;11.62;83.39
70254;BME280;57649;42.968;1.608;2023-03-26T12:32:50;97235.84;;;11.80;76.62
70254;BME280;57649;42.968;1.608;2023-03-26T12:35:24;97210.66;;;11.81;77.85
70254;BME280;57649;42.968;1.608;2023-03-26T12:37:55;97244.66;;;11.66;77.06
70254;BME280;57649;42.968;1.608;2023-03-26T12:40:37;97221.00;;;11.69;76.91
70254;BME280;57649;42.968;1.608;2023-03-26T12:43:34;97216.22;;;11.56;75.49
70254;BME280;57649;42.968;1.608;2023-03-26T12:46:00;97224.78;;;11.52;75.90
70254;BME280;57649;42.968;1.608;2023-03-26T12:48:26;97212.47;;;11.43;75.40
70254;BME280;57649;42.968;1.608;2023-03-26T12:51:16;97196.69;;;11.48;76.00
70254;BME280;57649;42.968;1.608;2023-03-26T12:59:34;97190.97;;;11.51;74.96
70254;BME280;57649;42.968;1.608;2023-03-26T13:18:43;97164.59;;;12.75;71.03
70254;BME280;57649;42.968;1.608;2023-03-26T13:38:19;97135.34;;;13.23;66.92
70254;BME280;57649;42.968;1.608;2023-03-26T13:46:09;97120.53;;;13.49;66.13
70254;BME280;57649;42.968;1.608;2023-03-26T13:48:44;97129.75;;;13.61;64.76
70254;BME280;57649;42.968;1.608;2023-03-26T13:51:18;97080.91;;;13.58;62.13
70254;BME280;57649;42.968;1.608;2023-03-26T13:53:54;97119.28;;;13.73;64.22
70254;BME280;57649;42.968;1.608;2023-03-26T13:56:25;97105.72;;;13.60;62.00
70254;BME280;57649;42.968;1.608;2023-03-26T13:59:00;97103.56;;;13.70;61.44
70254;BME280;57649;42.968;1.608;2023-03-26T14:01:33;97102.66;;;13.91;61.35
70254;BME280;57649;42.968;1.608;2023-03-26T14:04:26;97118.00;;;14.32;63.11
70254;BME280;57649;42.968;1.608;2023-03-26T14:07:17;97081.84;;;14.41;57.27
70254;BME280;57649;42.968;1.608;2023-03-26T14:09:55;97100.34;;;14.58;56.04
70254;BME280;57649;42.968;1.608;2023-03-26T14:15:26;97085.91;;;14.31;54.36
70254;BME280;57649;42.968;1.608;2023-03-26T14:31:49;97063.41;;;14.52;50.62
70254;BME280;57649;42.968;1.608;2023-03-26T14:54:13;97074.34;;;14.92;47.14
70254;BME280;57649;42.968;1.608;2023-03-26T15:11:24;97058.19;;;14.92;47.38
70254;BME280;57649;42.968;1.608;2023-03-26T15:39:21;97061.25;;;14.75;48.11
70254;BME280;57649;42.968;1.608;2023-03-26T15:42:30;97074.31;;;14.78;47.35
70254;BME280;57649;42.968;1.608;2023-03-26T15:53:16;97079.22;;;14.61;46.72
70254;BME280;57649;42.968;1.608;2023-03-26T16:04:14;97084.47;;;14.76;44.52
70254;BME280;57649;42.968;1.608;2023-03-26T16:07:06;97065.56;;;14.63;44.16
70254;BME280;57649;42.968;1.608;2023-03-26T16:15:27;97060.69;;;14.93;43.83
70254;BME280;57649;42.968;1.608;2023-03-26T16:20:51;97064.34;;;14.72;45.04
70254;BME280;57649;42.968;1.608;2023-03-26T16:24:23;97066.84;;;14.32;44.69
70254;BME280;57649;42.968;1.608;2023-03-26T16:29:23;97092.72;;;13.92;45.94
70254;BME280;57649;42.968;1.608;2023-03-26T16:32:15;97073.91;;;13.63;45.90
70254;BME280;57649;42.968;1.608;2023-03-26T16:43:20;97101.38;;;13.87;46.16
70254;BME280;57649;42.968;1.608;2023-03-26T16:46:00;97076.72;;;13.83;47.33
70254;BME280;57649;42.968;1.608;2023-03-26T16:48:49;97063.63;;;13.74;46.21
70254;BME280;57649;42.968;1.608;2023-03-26T16:57:27;97092.63;;;13.28;49.13
70254;BME280;57649;42.968;1.608;2023-03-26T17:11:08;97108.50;;;12.50;52.11
70254;BME280;57649;42.968;1.608;2023-03-26T17:16:32;97075.31;;;12.22;53.16
70254;BME280;57649;42.968;1.608;2023-03-26T17:24:32;97061.00;;;12.15;53.69
70254;BME280;57649;42.968;1.608;2023-03-26T17:27:17;97078.66;;;12.09;53.75
70254;BME280;57649;42.968;1.608;2023-03-26T17:35:41;97074.81;;;11.88;54.68
70254;BME280;57649;42.968;1.608;2023-03-26T17:40:56;97112.47;;;11.80;55.71
70254;BME280;57649;42.968;1.608;2023-03-26T17:43:48;97110.88;;;11.71;56.28
70254;BME280;57649;42.968;1.608;2023-03-26T17:49:12;97127.16;;;11.69;56.26
70254;BME280;57649;42.968;1.608;2023-03-26T17:54:48;97101.06;;;11.63;54.78
70254;BME280;57649;42.968;1.608;2023-03-26T17:59:47;97124.53;;;11.61;54.98
70254;BME280;57649;42.968;1.608;2023-03-26T18:02:20;97119.84;;;11.63;55.43
70254;BME280;57649;42.968;1.608;2023-03-26T18:04:49;97106.78;;;11.60;55.15
70254;BME280;57649;42.968;1.608;2023-03-26T18:18:16;97109.56;;;11.29;56.75
70254;BME280;57649;42.968;1.608;2023-03-26T18:20:45;97117.97;;;11.26;56.52
70254;BME280;57649;42.968;1.608;2023-03-26T18:23:32;97101.72;;;11.27;56.60
70254;BME280;57649;42.968;1.608;2023-03-26T18:26:21;97130.06;;;11.22;57.35
70254;BME280;57649;42.968;1.608;2023-03-26T18:28:50;97133.63;;;11.14;58.35
70254;BME280;57649;42.968;1.608;2023-03-26T18:31:23;97142.63;;;11.21;58.29
70254;BME280;57649;42.968;1.608;2023-03-26T18:33:54;97131.59;;;11.16;58.50
70254;BME280;57649;42.968;1.608;2023-03-26T18:36:23;97161.75;;;11.10;59.20
70254;BME280;57649;42.968;1.608;2023-03-26T18:38:49;97141.38;;;11.09;59.14
70254;BME280;57649;42.968;1.608;2023-03-26T18:41:27;97157.69;;;10.99;60.31
70254;BME280;57649;42.968;1.608;2023-03-26T18:43:54;97138.44;;;10.95;60.96
70254;BME280;57649;42.968;1.608;2023-03-26T18:46:22;97136.09;;;10.92;61.02
70254;BME280;57649;42.968;1.608;2023-03-26T18:48:48;97141.81;;;10.89;60.43
70254;BME280;57649;42.968;1.608;2023-03-26T18:51:13;97140.09;;;10.73;62.00
70254;BME280;57649;42.968;1.608;2023-03-26T18:53:51;97134.03;;;10.71;63.00
70254;BME280;57649;42.968;1.608;2023-03-26T18:56:26;97130.94;;;10.59;63.46
70254;BME280;57649;42.968;1.608;2023-03-26T18:58:55;97114.81;;;10.68;63.49
70254;BME280;57649;42.968;1.608;2023-03-26T19:01:22;97124.28;;;10.55;63.21
70254;BME280;57649;42.968;1.608;2023-03-26T19:03:50;97130.28;;;10.57;63.29
70254;BME280;57649;42.968;1.608;2023-03-26T19:06:18;97143.66;;;10.57;62.83
70254;BME280;57649;42.968;1.608;2023-03-26T19:08:45;97168.91;;;10.63;63.45
70254;BME280;57649;42.968;1.608;2023-03-26T19:11:14;97170.75;;;10.54;63.57
70254;BME280;57649;42.968;1.608;2023-03-26T19:13:41;97163.59;;;10.47;64.23
70254;BME280;57649;42.968;1.608;2023-03-26T19:18:39;97166.59;;;10.52;63.45
70254;BME280;57649;42.968;1.608;2023-03-26T19:21:05;97168.81;;;10.40;64.85
70254;BME280;57649;42.968;1.608;2023-03-26T19:23:38;97175.34;;;10.37;64.93
70254;BME280;57649;42.968;1.608;2023-03-26T19:26:06;97175.13;;;10.47;64.77
70254;BME280;57649;42.968;1.608;2023-03-26T19:33:53;97197.22;;;10.49;63.60
70254;BME280;57649;42.968;1.608;2023-03-26T19:36:22;97198.22;;;10.48;64.27
70254;BME280;57649;42.968;1.608;2023-03-26T19:38:49;97205.44;;;10.48;63.57
70254;BME280;57649;42.968;1.608;2023-03-26T19:41:29;97210.63;;;10.41;64.91
70254;BME280;57649;42.968;1.608;2023-03-26T19:43:59;97199.22;;;10.47;63.50
70254;BME280;57649;42.968;1.608;2023-03-26T19:46:27;97178.66;;;10.48;63.15